Time;durP1;ratioP1;P1;durP2;ratioP2;P2;SDS_P1;SDS_P2;PMS_P1;PMS_P2;Temp;Humidity;BMP_temperature;BMP_pressure;BME280_temperature;BME280_humidity;BME280_pressure;Samples;Min_cycle;Max_cycle;Signal;HPM_P1;HPM_P2
2022/04/12 00:00:05;;;;;;;7.45;4.97;;;;;;;14.36;43.71;101731.88;5031978;28;20398;-62
2022/04/12 00:02:32;;;;;;;12.90;6.13;;;;;;;14.30;44.15;101732.22;5031545;28;20468;-62
2022/04/12 00:04:59;;;;;;;11.27;5.72;;;;;;;14.25;44.00;101732.47;5032067;28;20061;-62
2022/04/12 01:17:47;;;;;;;10.60;6.65;;;;;;;13.65;42.76;101704.97;3727014;28;20133;-63
2022/04/12 01:20:15;;;;;;;10.85;6.55;;;;;;;13.64;42.91;101705.91;5034748;28;20045;-62
2022/04/12 01:22:51;;;;;;;10.20;7.30;;;;;;;13.61;42.94;101697.31;5034327;28;20041;-61
2022/04/12 01:25:19;;;;;;;13.15;7.03;;;;;;;13.56;43.33;101702.84;5034581;28;20053;-62
2022/04/12 01:27:46;;;;;;;10.15;6.15;;;;;;;13.55;43.09;101701.97;5034645;28;20049;-62
2022/04/12 01:30:14;;;;;;;9.55;6.50;;;;;;;13.52;43.21;101693.38;5034557;28;20478;-62
2022/04/12 01:32:41;;;;;;;8.82;6.38;;;;;;;13.51;43.48;101703.09;5034310;28;20077;-62
2022/04/12 01:35:08;;;;;;;10.25;6.45;;;;;;;13.53;43.26;101695.94;5034420;28;20085;-61
2022/04/12 01:37:35;;;;;;;10.73;6.88;;;;;;;13.47;43.33;101693.63;5035576;28;20072;-61
2022/04/12 01:40:03;;;;;;;9.65;6.63;;;;;;;13.48;43.22;101692.69;5052911;28;20045;-62
2022/04/12 01:42:30;;;;;;;11.18;6.82;;;;;;;13.46;43.52;101696.34;5054286;28;20084;-63
2022/04/12 01:44:57;;;;;;;8.65;6.30;;;;;;;13.44;43.38;101695.59;5054240;28;20090;-63
2022/04/12 01:47:23;;;;;;;9.20;6.53;;;;;;;13.42;43.30;101698.31;5054020;28;20123;-62
2022/04/12 01:49:50;;;;;;;10.05;6.35;;;;;;;13.39;43.39;101701.97;5054131;28;20052;-61
2022/04/12 01:52:17;;;;;;;8.43;6.22;;;;;;;13.38;43.43;101699.38;5053960;28;20386;-62
2022/04/12 01:54:43;;;;;;;12.05;6.63;;;;;;;13.36;43.49;101702.06;5053169;28;20057;-63
2022/04/12 01:57:10;;;;;;;12.90;6.35;;;;;;;13.33;43.52;101698.75;5053968;28;20123;-61
2022/04/12 01:59:37;;;;;;;9.65;6.55;;;;;;;13.31;43.50;101700.63;5052804;28;20081;-62
2022/04/12 02:02:03;;;;;;;12.73;6.68;;;;;;;13.29;43.61;101700.69;5053727;28;20053;-62
2022/04/12 02:04:30;;;;;;;9.95;6.18;;;;;;;13.28;43.44;101696.38;5053702;28;20139;-62
2022/04/12 02:06:57;;;;;;;11.13;6.78;;;;;;;13.20;43.56;101696.78;5053775;28;20049;-62
2022/04/12 02:09:24;;;;;;;9.73;6.25;;;;;;;13.18;43.61;101698.63;5046792;28;20042;-62
2022/04/12 02:11:50;;;;;;;10.82;6.13;;;;;;;13.19;43.51;101694.19;5033899;28;20073;-61
2022/04/12 02:14:17;;;;;;;9.30;6.38;;;;;;;13.15;43.62;101690.88;5033694;28;20053;-62
2022/04/12 02:16:44;;;;;;;10.45;6.43;;;;;;;13.15;43.53;101690.03;5033729;28;20049;-62
2022/04/12 02:19:10;;;;;;;11.20;6.63;;;;;;;13.12;43.66;101692.84;5033456;28;20089;-62
2022/04/12 02:21:37;;;;;;;9.85;6.53;;;;;;;13.10;43.51;101689.41;5033642;28;20093;-63
2022/04/12 02:24:04;;;;;;;10.85;7.32;;;;;;;13.05;43.72;101684.38;5033441;28;20079;-61
2022/04/12 02:26:30;;;;;;;10.95;7.22;;;;;;;13.05;43.78;101687.88;5033047;28;20493;-62
2022/04/12 02:28:57;;;;;;;10.02;6.53;;;;;;;13.03;43.81;101695.00;5033609;28;20084;-61
2022/04/12 02:31:23;;;;;;;12.13;7.55;;;;;;;13.03;43.75;101687.09;5033338;28;20186;-62
2022/04/12 02:33:50;;;;;;;13.68;7.80;;;;;;;12.94;44.03;101689.34;5033275;28;20506;-62
2022/04/12 02:36:17;;;;;;;9.68;6.90;;;;;;;12.86;44.19;101693.25;5033056;28;20127;-62
2022/04/12 02:38:43;;;;;;;10.45;6.97;;;;;;;12.73;44.39;101698.28;5033289;28;20076;-62
2022/04/12 02:41:10;;;;;;;11.18;6.60;;;;;;;12.68;44.46;101688.91;5033089;28;20092;-62
2022/04/12 02:43:37;;;;;;;13.90;6.88;;;;;;;12.67;44.51;101690.69;5032678;28;20053;-62
2022/04/12 02:46:04;;;;;;;10.40;6.70;;;;;;;12.63;44.52;101694.38;5033227;28;20049;-62
2022/04/12 02:48:31;;;;;;;11.90;6.88;;;;;;;12.52;44.72;101697.56;5033026;28;20053;-62
2022/04/12 02:50:57;;;;;;;15.88;7.53;;;;;;;12.42;45.09;101693.69;5032955;28;20091;-62
2022/04/12 02:53:24;;;;;;;12.02;7.18;;;;;;;12.35;45.28;101700.19;5032968;28;20057;-62
2022/04/12 02:55:50;;;;;;;14.18;7.20;;;;;;;12.29;45.60;101696.06;5032969;28;20417;-61
2022/04/12 02:58:17;;;;;;;13.00;7.10;;;;;;;12.22;45.72;101690.22;5032793;28;20081;-63
2022/04/12 03:00:44;;;;;;;10.05;6.78;;;;;;;12.22;45.86;101692.88;5032501;28;20042;-61
2022/04/12 03:03:11;;;;;;;14.60;7.13;;;;;;;12.21;46.05;101693.81;5038266;28;20053;-61
2022/04/12 03:05:38;;;;;;;10.50;6.28;;;;;;;12.16;46.22;101695.78;5049347;28;20423;-61
2022/04/12 03:08:05;;;;;;;11.90;6.68;;;;;;;12.17;46.17;101694.88;5049328;28;20450;-62
2022/04/12 03:10:31;;;;;;;10.45;6.70;;;;;;;12.12;46.29;101694.25;5049665;28;20175;-61
2022/04/12 03:12:58;;;;;;;11.70;6.80;;;;;;;12.07;46.37;101690.97;5049074;28;20055;-61
2022/04/12 03:15:24;;;;;;;15.93;6.43;;;;;;;12.02;46.50;101691.19;5049262;28;20118;-62
2022/04/12 03:17:51;;;;;;;16.13;7.25;;;;;;;11.98;46.64;101692.25;5031466;28;20049;-62
2022/04/12 03:20:18;;;;;;;12.05;7.35;;;;;;;11.95;46.63;101699.41;5029391;28;20049;-62
2022/04/12 03:22:44;;;;;;;14.07;6.57;;;;;;;11.88;46.79;101701.47;5029146;28;20061;-62
2022/04/12 03:25:11;;;;;;;10.15;7.38;;;;;;;11.84;46.97;101703.41;5029099;28;20470;-61
2022/04/12 03:27:38;;;;;;;11.00;6.68;;;;;;;11.80;47.16;101706.25;5029071;28;20498;-61
2022/04/12 03:30:06;;;;;;;9.68;6.82;;;;;;;11.79;47.31;101705.38;5029237;28;20383;-62
2022/04/12 03:32:32;;;;;;;12.30;7.40;;;;;;;11.81;47.23;101703.56;5028738;28;20080;-62
2022/04/12 03:34:59;;;;;;;10.80;6.95;;;;;;;11.79;47.48;101707.19;5028971;28;20084;-61
2022/04/12 03:37:25;;;;;;;11.70;7.57;;;;;;;11.68;47.53;101705.03;5028741;28;20050;-61
2022/04/12 03:39:52;;;;;;;10.73;7.30;;;;;;;11.66;47.55;101707.75;5028632;28;20084;-61
2022/04/12 03:42:19;;;;;;;13.43;7.28;;;;;;;11.60;47.80;101714.16;5028970;28;20096;-61
2022/04/12 03:44:45;;;;;;;12.15;7.25;;;;;;;11.55;47.73;101713.50;5029052;28;20470;-61
2022/04/12 03:47:12;;;;;;;14.32;8.25;;;;;;;11.52;47.79;101712.78;5028739;28;20073;-61
2022/04/12 03:49:39;;;;;;;13.25;7.72;;;;;;;11.44;47.97;101708.72;5028944;28;20473;-61
2022/04/12 03:52:06;;;;;;;12.93;7.47;;;;;;;11.40;48.06;101712.41;5028758;28;20100;-61
2022/04/12 03:54:33;;;;;;;11.48;6.57;;;;;;;11.36;48.09;101705.56;5028562;28;20060;-61
2022/04/12 03:56:59;;;;;;;11.43;8.05;;;;;;;11.34;48.13;101706.53;5028548;28;20103;-61
2022/04/12 03:59:26;;;;;;;12.73;7.13;;;;;;;11.28;48.14;101708.53;5028984;28;20049;-61
2022/04/12 04:01:53;;;;;;;12.93;7.30;;;;;;;11.27;48.38;101708.59;5029050;28;20085;-61
2022/04/12 04:04:20;;;;;;;14.35;7.30;;;;;;;11.24;48.23;101693.81;5028198;28;20107;-61
2022/04/12 04:06:46;;;;;;;12.25;7.55;;;;;;;11.24;48.27;101706.97;5028600;28;20046;-61
2022/04/12 04:09:13;;;;;;;12.50;7.28;;;;;;;11.21;48.55;101709.75;5028813;28;20410;-61
2022/04/12 04:11:42;;;;;;;10.57;6.97;;;;;;;11.16;48.91;101716.97;5028744;28;20045;-61
2022/04/12 04:14:10;;;;;;;14.00;8.68;;;;;;;11.10;48.84;101709.34;5028554;28;20073;-61
2022/04/12 04:16:38;;;;;;;12.80;7.35;;;;;;;11.10;48.97;101715.44;5028873;28;20145;-61
2022/04/12 04:19:08;;;;;;;15.68;7.90;;;;;;;11.14;48.87;101713.53;5028470;28;20050;-61
2022/04/12 04:21:38;;;;;;;11.85;7.63;;;;;;;11.08;48.92;101719.06;5028329;28;20045;-61
2022/04/12 04:24:06;;;;;;;10.10;7.00;;;;;;;11.09;49.18;101723.41;5028570;28;20085;-61
2022/04/12 04:26:32;;;;;;;12.55;7.13;;;;;;;11.06;49.19;101721.75;5037815;28;20558;-61
2022/04/12 04:29:00;;;;;;;21.25;8.32;;;;;;;11.03;49.38;101728.91;5048363;28;20045;-61
2022/04/12 04:31:27;;;;;;;13.88;7.57;;;;;;;11.08;49.34;101730.44;5047976;28;20383;-61
2022/04/12 04:33:56;;;;;;;15.68;7.93;;;;;;;11.02;49.37;101733.31;5046599;28;20136;-61
2022/04/12 04:36:23;;;;;;;11.02;7.75;;;;;;;10.98;49.55;101733.50;5028350;28;20482;-61
2022/04/12 04:38:50;;;;;;;9.80;7.28;;;;;;;10.98;49.70;101739.59;5028150;28;20096;-61
2022/04/12 04:41:17;;;;;;;20.05;7.78;;;;;;;10.95;49.95;101735.34;5028641;28;20049;-61
2022/04/12 04:43:46;;;;;;;14.27;7.70;;;;;;;10.97;50.09;101739.66;5028488;28;20429;-61
2022/04/12 04:46:13;;;;;;;15.57;7.32;;;;;;;10.95;49.99;101737.97;5046387;28;20064;-61
2022/04/12 04:48:41;;;;;;;20.52;8.13;;;;;;;10.94;49.96;101736.28;5048537;28;20044;-61
2022/04/12 04:51:08;;;;;;;18.00;7.88;;;;;;;10.93;50.10;101745.06;5047851;28;20587;-61
2022/04/12 04:53:37;;;;;;;27.88;8.82;;;;;;;10.93;50.09;101745.06;5050634;28;20059;-61
2022/04/12 04:56:05;;;;;;;26.25;9.32;;;;;;;10.88;50.07;101744.41;5032760;28;20049;-61
2022/04/12 04:58:31;;;;;;;17.20;8.15;;;;;;;10.84;50.23;101748.06;5031885;28;20051;-61
2022/04/12 05:00:58;;;;;;;8.80;4.53;;;;;;;11.03;50.95;101749.91;5049461;28;20512;-61
2022/04/12 05:03:27;;;;;;;6.35;3.38;;;;;;;12.27;50.51;101741.81;5051590;28;20421;-61
2022/04/12 05:05:53;;;;;;;15.95;7.60;;;;;;;12.53;50.76;101743.16;5051861;28;20053;-61
2022/04/12 05:08:20;;;;;;;12.57;7.40;;;;;;;12.02;51.32;101748.22;5051712;28;20053;-61
2022/04/12 05:10:47;;;;;;;15.38;7.85;;;;;;;11.83;51.03;101753.44;5051203;28;20047;-61
2022/04/12 05:13:13;;;;;;;19.33;7.60;;;;;;;11.69;51.00;101751.44;5048724;28;20076;-61
2022/04/12 05:15:40;;;;;;;17.63;7.97;;;;;;;11.66;50.80;101744.53;5037444;28;20045;-61
2022/04/12 05:18:07;;;;;;;15.25;7.53;;;;;;;11.57;50.50;101748.44;5051771;28;20056;-61
2022/04/12 05:20:39;;;;;;;16.80;7.90;;;;;;;11.55;50.49;101755.56;5051576;28;20041;-61
2022/04/12 05:23:10;;;;;;;14.35;7.72;;;;;;;11.53;50.42;101753.88;5043010;28;20056;-61
2022/04/12 05:25:37;;;;;;;17.65;8.15;;;;;;;11.54;50.17;101760.84;5031571;28;20052;-61
2022/04/12 05:28:04;;;;;;;14.57;7.57;;;;;;;11.55;49.97;101766.06;5031218;28;20556;-61
2022/04/12 05:30:31;;;;;;;14.80;8.00;;;;;;;11.53;49.96;101757.38;5030823;28;20045;-62
2022/04/12 05:32:58;;;;;;;14.48;7.90;;;;;;;11.63;49.74;101762.22;5039068;28;20479;-65
2022/04/12 05:35:25;;;;;;;17.13;8.70;;;;;;;11.68;49.63;101773.38;5048778;28;20114;-61
2022/04/12 05:37:53;;;;;;;17.95;9.65;;;;;;;11.73;49.44;101769.66;5050926;28;20049;-61
2022/04/12 05:40:21;;;;;;;15.48;7.80;;;;;;;11.83;49.39;101777.13;5050176;28;20697;-61
2022/04/12 05:42:49;;;;;;;12.82;7.95;;;;;;;11.89;49.16;101772.41;5050510;28;20076;-61
2022/04/12 05:45:16;;;;;;;14.18;7.22;;;;;;;11.89;49.16;101772.41;5050657;28;20114;-61
2022/04/12 05:47:55;;;;;;;15.88;8.50;;;;;;;11.87;49.47;101774.28;5048895;28;20037;-61
2022/04/12 05:50:24;;;;;;;20.83;7.93;;;;;;;11.93;49.48;101774.00;5050781;28;20493;-61
2022/04/12 05:52:51;;;;;;;36.35;5.95;;;;;;;12.13;50.41;101781.94;5050478;28;20094;-61
2022/04/12 05:55:21;;;;;;;15.43;8.38;;;;;;;12.11;50.85;101787.25;5047962;28;20044;-61
2022/04/12 05:57:59;;;;;;;19.50;7.97;;;;;;;12.23;50.68;101783.22;5049293;28;20052;-61
2022/04/12 06:00:31;;;;;;;13.57;7.65;;;;;;;12.23;50.53;101777.94;5050713;28;20067;-61
2022/04/12 06:02:58;;;;;;;15.00;7.82;;;;;;;12.21;50.77;101779.78;5048006;28;20049;-61
2022/04/12 06:05:32;;;;;;;18.63;7.95;;;;;;;12.25;50.72;101794.50;5030406;28;20058;-61
2022/04/12 06:08:00;;;;;;;17.38;8.00;;;;;;;12.36;50.65;101796.63;5030833;28;20597;-61
2022/04/12 06:10:27;;;;;;;13.70;7.68;;;;;;;12.35;50.70;101800.19;5030820;28;20510;-61
2022/04/12 06:12:58;;;;;;;18.60;7.18;;;;;;;12.37;50.78;101799.19;5030649;28;20099;-61
2022/04/12 06:15:25;;;;;;;13.63;7.35;;;;;;;12.45;50.67;101809.34;5030284;28;20054;-61
2022/04/12 06:17:51;;;;;;;18.23;7.38;;;;;;;12.54;50.58;101806.31;5030370;28;20064;-62
2022/04/12 06:20:19;;;;;;;14.52;7.50;;;;;;;12.70;50.49;101800.28;5029505;28;20095;-61
2022/04/12 06:22:46;;;;;;;16.20;7.72;;;;;;;12.75;50.37;101800.91;5030098;28;20123;-61
2022/04/12 06:25:20;;;;;;;11.73;7.63;;;;;;;12.88;50.21;101807.28;5029992;28;20111;-62
2022/04/12 06:27:51;;;;;;;16.35;8.13;;;;;;;13.00;50.00;101812.88;5030274;28;20048;-61
2022/04/12 06:30:23;;;;;;;15.13;7.18;;;;;;;12.99;50.09;101798.84;5030289;28;20080;-62
2022/04/12 06:32:51;;;;;;;13.45;7.50;;;;;;;12.92;50.41;101805.34;5030248;28;20088;-62
2022/04/12 06:35:18;;;;;;;13.57;7.85;;;;;;;13.07;50.12;101806.38;5030217;28;20445;-62
2022/04/12 06:37:46;;;;;;;16.20;8.75;;;;;;;13.23;49.84;101803.84;5036267;28;20049;-61
2022/04/12 06:40:15;;;;;;;13.85;7.88;;;;;;;13.35;49.57;101797.91;5034822;28;20057;-62
2022/04/12 06:42:42;;;;;;;10.43;4.78;;;;;;;13.94;48.78;101801.94;5029926;28;20049;-61
2022/04/12 06:45:11;;;;;;;15.57;8.43;;;;;;;13.84;49.09;101812.13;5039764;28;20061;-61
2022/04/12 06:47:38;;;;;;;15.60;7.60;;;;;;;13.98;48.89;101812.25;5030237;28;20053;-61
2022/04/12 06:50:06;;;;;;;12.57;6.63;;;;;;;13.98;48.81;101808.75;5040171;28;20088;-61
2022/04/12 06:52:33;;;;;;;11.30;6.78;;;;;;;14.03;48.56;101801.47;5045843;28;20040;-62
2022/04/12 06:55:00;;;;;;;14.57;6.70;;;;;;;14.17;48.34;101801.53;5042250;28;20041;-62
2022/04/12 06:57:34;;;;;;;12.05;6.97;;;;;;;14.30;48.06;101807.00;5029449;28;20042;-62
2022/04/12 07:00:04;;;;;;;13.30;6.72;;;;;;;14.41;47.72;101806.41;5029947;28;20087;-62
2022/04/12 07:02:30;;;;;;;11.80;6.95;;;;;;;14.50;47.90;101803.25;5029677;28;20123;-62
2022/04/12 07:04:57;;;;;;;9.85;6.05;;;;;;;14.56;47.52;101812.59;5029483;28;20084;-61
2022/04/12 07:07:24;;;;;;;13.88;6.57;;;;;;;14.60;47.38;101815.94;5029438;28;20111;-62
2022/04/12 07:09:51;;;;;;;13.20;6.63;;;;;;;14.66;47.10;101810.34;5029670;28;20399;-61
2022/04/12 07:12:18;;;;;;;10.82;6.80;;;;;;;14.77;46.64;101818.50;5029067;28;20068;-61
2022/04/12 07:14:44;;;;;;;14.20;7.15;;;;;;;14.75;46.28;101816.88;5029053;28;20457;-62
2022/04/12 07:17:11;;;;;;;12.05;7.40;;;;;;;14.86;46.12;101815.31;5028921;28;20045;-62
2022/04/12 07:19:38;;;;;;;15.10;7.25;;;;;;;15.07;45.67;101817.69;5029395;28;20111;-62
2022/04/12 07:22:05;;;;;;;16.00;7.75;;;;;;;15.14;45.76;101811.06;5029126;28;20073;-61
2022/04/12 07:24:31;;;;;;;13.15;7.40;;;;;;;15.26;45.33;101809.50;5029166;28;20513;-61
2022/04/12 07:26:58;;;;;;;13.25;7.63;;;;;;;15.33;44.82;101810.81;5029458;28;20493;-62
2022/04/12 07:29:25;;;;;;;14.60;7.90;;;;;;;15.48;44.38;101810.88;5029131;28;20132;-62
2022/04/12 07:31:51;;;;;;;15.02;8.25;;;;;;;15.59;43.85;101815.50;5028460;28;20045;-62
2022/04/12 07:34:18;;;;;;;15.27;7.60;;;;;;;15.66;43.95;101814.19;5028923;28;20129;-62
2022/04/12 07:36:53;;;;;;;13.15;7.97;;;;;;;15.77;43.66;101805.56;5029074;28;20041;-62
2022/04/12 07:39:21;;;;;;;12.90;7.78;;;;;;;15.93;43.24;101806.34;5028962;28;20045;-62
2022/04/12 07:41:48;;;;;;;11.80;7.07;;;;;;;16.08;43.01;101811.66;5029090;28;20046;-61
2022/04/12 07:44:16;;;;;;;15.18;8.35;;;;;;;16.24;43.00;101820.34;5028928;28;20085;-62
2022/04/12 07:46:43;;;;;;;15.38;7.68;;;;;;;16.23;43.34;101815.97;5028932;28;20072;-62
2022/04/12 07:49:11;;;;;;;13.35;7.97;;;;;;;16.35;43.15;101819.63;5028533;28;20045;-62
2022/04/12 07:51:38;;;;;;;16.42;7.53;;;;;;;16.49;43.14;101818.75;5028978;28;20076;-61
2022/04/12 07:54:06;;;;;;;15.27;7.53;;;;;;;16.60;42.67;101818.06;5028994;28;20053;-62
2022/04/12 07:56:33;;;;;;;15.00;7.15;;;;;;;16.68;42.88;101818.41;5028878;28;20057;-62
2022/04/12 07:59:00;;;;;;;11.77;7.57;;;;;;;16.80;42.55;101822.91;5028918;28;20125;-62
2022/04/12 08:01:27;;;;;;;12.50;7.35;;;;;;;16.86;42.54;101819.00;5028679;28;20054;-62
2022/04/12 08:03:54;;;;;;;14.70;7.10;;;;;;;17.00;41.93;101818.13;5028494;28;20041;-62
2022/04/12 08:06:20;;;;;;;13.75;7.20;;;;;;;17.14;41.94;101814.53;5028751;28;20069;-62
2022/04/12 08:08:48;;;;;;;17.42;7.68;;;;;;;17.18;42.17;101823.13;5028789;28;20052;-62
2022/04/12 08:11:15;;;;;;;18.50;7.65;;;;;;;17.29;41.97;101812.63;5028605;28;20041;-61
2022/04/12 08:13:42;;;;;;;14.23;6.65;;;;;;;17.44;41.65;101814.25;5028886;28;20045;-66
2022/04/12 08:16:09;;;;;;;11.90;6.80;;;;;;;17.54;41.36;101811.81;5028569;28;20049;-62
2022/04/12 08:18:45;;;;;;;12.75;6.57;;;;;;;17.66;41.17;101810.13;5028476;28;20049;-62
2022/04/12 08:21:11;;;;;;;13.88;7.38;;;;;;;17.87;40.72;101807.75;5028145;28;20120;-62
2022/04/12 08:23:39;;;;;;;18.73;8.82;;;;;;;18.01;40.55;101803.31;5028800;28;20402;-62
2022/04/12 08:26:05;;;;;;;12.93;7.25;;;;;;;18.13;40.52;101817.50;5028626;28;20511;-62
2022/04/12 08:28:32;;;;;;;12.50;6.70;;;;;;;18.22;39.82;101809.75;5032366;28;20045;-62
2022/04/12 08:30:59;;;;;;;14.35;7.20;;;;;;;18.32;40.08;101809.06;5032354;28;20103;-62
2022/04/12 08:33:26;;;;;;;11.60;6.82;;;;;;;18.39;39.85;101802.34;5032129;28;20045;-62
2022/04/12 08:35:52;;;;;;;12.98;6.45;;;;;;;18.59;39.11;101798.22;5032080;28;20050;-62
2022/04/12 08:38:19;;;;;;;12.73;6.68;;;;;;;18.75;39.03;101803.25;5031932;28;20080;-63
2022/04/12 08:40:47;;;;;;;12.32;6.78;;;;;;;18.86;39.10;101800.63;5032340;28;20572;-62
2022/04/12 08:43:16;;;;;;;9.95;5.72;;;;;;;18.81;38.98;101801.94;5032148;28;20042;-62
2022/04/12 08:45:45;;;;;;;12.82;6.07;;;;;;;19.00;38.34;101804.09;5032046;28;20053;-63
2022/04/12 08:48:14;;;;;;;13.43;6.32;;;;;;;19.16;38.18;101804.63;5032026;28;20489;-62
2022/04/12 08:50:41;;;;;;;8.93;5.75;;;;;;;19.32;38.14;101800.78;5031995;28;20081;-62
2022/04/12 08:53:09;;;;;;;9.48;5.75;;;;;;;19.44;37.65;101801.66;5032343;28;20494;-62
2022/04/12 08:55:36;;;;;;;10.75;5.80;;;;;;;19.46;38.23;101799.72;5032044;28;20458;-63
2022/04/12 08:58:02;;;;;;;13.20;6.10;;;;;;;19.56;37.56;101803.38;5031856;28;20084;-61
2022/04/12 09:00:29;;;;;;;12.32;5.72;;;;;;;19.56;37.46;101798.03;5031904;28;20132;-62
2022/04/12 09:02:59;;;;;;;11.25;5.47;;;;;;;19.59;37.12;101792.47;5031767;28;20132;-62
2022/04/12 09:05:27;;;;;;;11.65;5.72;;;;;;;19.84;36.72;101787.91;5031527;28;20050;-62
2022/04/12 09:07:55;;;;;;;11.60;5.85;;;;;;;20.00;36.49;101785.72;5031633;28;20129;-62
2022/04/12 09:10:32;;;;;;;9.68;5.57;;;;;;;20.25;35.72;101790.88;5031076;28;20124;-62
2022/04/12 09:13:12;;;;;;;11.70;5.60;;;;;;;20.24;35.59;101790.03;5031858;28;20053;-62
2022/04/12 09:15:44;;;;;;;15.98;5.65;;;;;;;20.18;35.86;101788.69;5032050;28;20057;-62
2022/04/12 09:18:35;;;;;;;10.48;5.05;;;;;;;20.31;35.56;101791.22;5031467;28;20050;-62
2022/04/12 09:21:18;;;;;;;12.23;5.30;;;;;;;20.44;35.49;101799.03;5031642;28;20544;-65
2022/04/12 09:23:50;;;;;;;10.10;5.78;;;;;;;20.47;35.31;101789.97;5031521;28;20512;-62
2022/04/12 09:26:27;;;;;;;10.18;4.80;;;;;;;20.53;34.93;101792.97;5031037;28;20119;-62
2022/04/12 09:28:57;;;;;;;11.75;5.15;;;;;;;20.63;34.92;101789.53;5031214;28;20057;-62
2022/04/12 09:31:24;;;;;;;13.10;5.45;;;;;;;20.84;34.01;101789.63;5031083;28;20073;-62
2022/04/12 09:33:53;;;;;;;9.77;5.05;;;;;;;21.03;33.84;101791.59;5031189;28;20588;-61
2022/04/12 09:36:21;;;;;;;8.38;5.07;;;;;;;20.90;34.06;101796.25;5031109;28;20061;-62
2022/04/12 09:38:55;;;;;;;9.57;4.63;;;;;;;21.14;33.41;101790.66;5030637;28;20576;-62
2022/04/12 09:41:23;;;;;;;8.07;5.22;;;;;;;21.26;33.48;101778.94;5030888;28;20076;-63
2022/04/12 09:44:11;;;;;;;10.98;5.22;;;;;;;21.48;33.19;101782.41;5031367;28;20053;-62
2022/04/12 09:46:39;;;;;;;9.10;5.53;;;;;;;21.47;32.98;101775.38;5031271;28;20061;-63
2022/04/12 09:49:07;;;;;;;14.00;5.85;;;;;;;21.68;32.63;101772.69;5030828;28;20103;-62
2022/04/12 09:51:37;;;;;;;8.23;4.90;;;;;;;21.88;32.09;101765.59;5030908;28;20041;-62
2022/04/12 09:54:09;;;;;;;10.27;4.93;;;;;;;21.91;32.27;101765.31;5034491;28;20104;-65
2022/04/12 09:56:36;;;;;;;16.77;5.45;;;;;;;21.94;31.87;101762.38;5046587;28;20532;-62
2022/04/12 09:59:09;;;;;;;9.88;5.38;;;;;;;22.01;32.02;101760.00;5030236;28;20120;-62
2022/04/12 10:01:39;;;;;;;9.15;4.80;;;;;;;22.03;31.53;101752.69;5033131;28;20152;-61
2022/04/12 10:04:11;;;;;;;8.50;4.70;;;;;;;21.95;31.49;101760.53;5030467;28;20046;-68
2022/04/12 10:06:42;;;;;;;10.35;5.05;;;;;;;21.92;31.29;101750.16;5030381;28;20453;-62
2022/04/12 10:09:12;;;;;;;9.10;5.22;;;;;;;21.90;30.97;101747.59;5047687;28;20080;-61
2022/04/12 10:11:39;;;;;;;12.13;5.28;;;;;;;21.85;30.98;101747.16;5050137;28;20140;-62
2022/04/12 10:14:06;;;;;;;9.93;4.63;;;;;;;22.11;30.81;101749.34;5039964;28;20506;-62
2022/04/12 10:16:34;;;;;;;9.38;4.88;;;;;;;22.26;30.78;101747.94;5030359;28;20052;-61
2022/04/12 10:19:01;;;;;;;15.63;5.32;;;;;;;22.40;30.20;101746.72;5029722;28;20053;-62
2022/04/12 10:21:29;;;;;;;12.80;4.63;;;;;;;22.55;30.16;101741.81;5046668;28;20052;-65
2022/04/12 10:23:58;;;;;;;8.82;4.57;;;;;;;22.59;30.54;101742.34;5033846;28;20494;-62
2022/04/12 10:26:27;;;;;;;7.40;4.82;;;;;;;22.53;30.46;101735.75;5043956;28;20056;-61
2022/04/12 10:29:04;;;;;;;7.63;4.65;;;;;;;22.40;30.31;101727.13;5047600;28;20132;-61
2022/04/12 10:31:32;;;;;;;8.02;4.40;;;;;;;22.56;30.44;101724.75;5048944;28;20410;-61
2022/04/12 10:34:14;;;;;;;12.73;5.60;;;;;;;22.71;30.05;101722.47;5046536;28;20099;-61
2022/04/12 10:37:10;;;;;;;7.18;4.10;;;;;;;22.70;29.86;101718.09;5049126;28;20059;-65
2022/04/12 10:40:03;;;;;;;9.15;4.72;;;;;;;22.89;29.57;101705.69;5048253;28;20131;-61
2022/04/12 10:42:36;;;;;;;9.35;4.97;;;;;;;23.00;29.65;101701.00;5048501;28;20048;-61
2022/04/12 10:45:04;;;;;;;8.90;4.95;;;;;;;23.12;29.27;101696.34;5039975;28;20041;-62
2022/04/12 10:47:42;;;;;;;8.32;4.85;;;;;;;23.22;29.11;101690.94;5029539;28;20056;-62
2022/04/12 10:50:14;;;;;;;8.25;4.53;;;;;;;23.29;28.97;101688.56;5028606;28;20386;-63
2022/04/12 10:52:45;;;;;;;8.68;4.90;;;;;;;23.45;28.84;101685.22;5029890;28;20045;-63
2022/04/12 10:55:15;;;;;;;8.40;5.13;;;;;;;23.63;28.79;101685.28;5028841;28;20405;-64
2022/04/12 10:57:42;;;;;;;7.28;4.55;;;;;;;23.77;28.50;101686.63;5029258;28;20525;-63
2022/04/12 11:00:19;;;;;;;8.43;4.40;;;;;;;23.89;28.23;101688.06;5029144;28;20092;-63
2022/04/12 11:02:52;;;;;;;11.30;5.30;;;;;;;24.00;27.93;101681.69;5029738;28;20084;-63
2022/04/12 11:05:30;;;;;;;12.85;5.40;;;;;;;24.05;27.77;101684.75;5029472;28;20111;-67
2022/04/12 11:07:57;;;;;;;8.55;4.32;;;;;;;24.04;27.88;101674.19;5029488;28;20473;-63
2022/04/12 11:10:24;;;;;;;7.90;4.70;;;;;;;24.17;27.66;101674.63;5029571;28;20053;-66
2022/04/12 11:13:06;;;;;;;7.55;5.00;;;;;;;24.10;27.63;101670.88;5029573;28;20041;-62
2022/04/12 11:15:34;;;;;;;8.73;5.05;;;;;;;24.12;27.58;101676.91;5033405;28;20056;-61
2022/04/12 11:18:46;;;;;;;8.20;4.43;;;;;;;24.18;27.42;101668.25;5040268;28;20120;-62
2022/04/12 11:21:13;;;;;;;8.02;4.93;;;;;;;24.21;27.53;101673.31;5028817;28;20529;-62
2022/04/12 11:23:56;;;;;;;9.63;5.15;;;;;;;24.12;27.30;101671.56;5044190;28;20060;-62
2022/04/12 11:26:26;;;;;;;8.50;4.80;;;;;;;24.21;27.33;101669.78;5048842;28;20493;-61
2022/04/12 11:28:56;;;;;;;7.25;4.90;;;;;;;24.11;27.23;101669.88;5041858;28;20563;-61
2022/04/12 11:31:23;;;;;;;13.38;6.47;;;;;;;24.20;27.01;101668.97;5028498;28;20049;-62
2022/04/12 11:33:50;;;;;;;7.75;5.60;;;;;;;24.20;27.14;101668.09;5028903;28;20053;-61
2022/04/12 11:36:20;;;;;;;8.85;5.68;;;;;;;24.03;27.38;101664.44;5028868;28;20049;-61
2022/04/12 11:38:47;;;;;;;16.73;6.88;;;;;;;23.79;27.90;101658.66;5037960;28;20055;-62
2022/04/12 11:41:14;;;;;;;8.32;6.15;;;;;;;23.74;27.56;101668.97;5048671;28;20075;-62
2022/04/12 11:43:41;;;;;;;9.18;5.57;;;;;;;23.87;27.38;101657.03;5048830;28;20795;-61
2022/04/12 11:46:08;;;;;;;8.02;5.43;;;;;;;23.54;27.62;101656.69;5048479;28;20081;-61
2022/04/12 11:48:34;;;;;;;9.80;5.47;;;;;;;23.73;27.23;101653.03;5048908;28;20049;-62
2022/04/12 11:51:05;;;;;;;10.73;5.75;;;;;;;24.15;26.46;101652.50;5030638;28;20068;-62
2022/04/12 11:53:32;;;;;;;8.23;5.05;;;;;;;24.08;26.69;101654.09;5029172;28;20513;-61
2022/04/12 11:56:03;;;;;;;9.35;5.97;;;;;;;24.14;26.27;101642.75;5028856;28;20057;-61
2022/04/12 11:58:31;;;;;;;7.95;5.40;;;;;;;23.95;26.56;101641.09;5028744;28;20513;-61
2022/04/12 12:00:58;;;;;;;7.93;5.30;;;;;;;23.77;26.57;101646.41;5028475;28;20460;-62
2022/04/12 12:03:36;;;;;;;8.52;5.88;;;;;;;24.16;26.34;101642.59;5033383;28;20053;-62
2022/04/12 12:06:03;;;;;;;7.30;5.53;;;;;;;24.25;26.13;101636.28;5032443;28;20045;-61
2022/04/12 12:08:30;;;;;;;8.55;5.70;;;;;;;24.23;26.18;101633.78;5044557;28;20098;-61
2022/04/12 12:10:56;;;;;;;8.98;5.45;;;;;;;24.31;25.82;101627.63;5052761;28;20044;-62
2022/04/12 12:13:24;;;;;;;10.27;5.65;;;;;;;24.28;26.18;101625.28;5051529;28;20049;-61
2022/04/12 12:15:51;;;;;;;8.65;5.57;;;;;;;24.27;25.92;101628.94;5048830;28;20099;-61
2022/04/12 12:18:19;;;;;;;11.27;6.03;;;;;;;24.38;25.99;101634.06;5032375;28;20049;-62
2022/04/12 12:20:47;;;;;;;11.55;5.55;;;;;;;24.52;26.21;101626.44;5032469;28;20095;-61
2022/04/12 12:23:14;;;;;;;9.60;6.07;;;;;;;24.64;26.31;101622.53;5046402;28;20049;-61
2022/04/12 12:25:44;;;;;;;8.55;6.10;;;;;;;24.49;26.44;101632.94;5051988;28;20495;-61
2022/04/12 12:28:16;;;;;;;9.05;6.50;;;;;;;24.36;26.27;101624.50;5051733;28;20048;-61
2022/04/12 12:30:45;;;;;;;11.32;5.72;;;;;;;24.38;26.14;101628.69;5051388;28;20386;-61
2022/04/12 12:33:12;;;;;;;7.80;5.32;;;;;;;24.65;26.15;101620.69;5051911;28;20128;-61
2022/04/12 12:35:45;;;;;;;9.25;6.68;;;;;;;24.64;26.21;101618.97;5052230;28;20534;-61